< < Back
Terminal Aerodrome Forecast


Current Version              Previous Versions:   1  2  3  4  5  6  7  8  9  

Terminal Aerodrome Forecast

214
FTUS44 KOHX 300900 AAA
TAFCSV
TAF AMD
KCSV 300912Z 3009/3106 34011G18KT P6SM -DZ OVC015
     FM301400 35008G15KT P6SM OVC020
     FM301700 36010G17KT P6SM BKN025
     FM302100 35010KT P6SM SCT045
     FM310100 04003KT P6SM SCT250=

Latest METAR

405
SAUS70 KWBC 301456
MTRCSV
METAR KCSV 301453Z AUTO 32009KT 10SM BKN013 OVC019 00/M04 A3035 RMK AO2
SLP291 T00001039 51017


USA.gov is the U.S. government's official web portal to all federal, state and local government web resources and services.